sensor_id;sensor_type;location;lat;lon;timestamp;P1;durP1;ratioP1;P2;durP2;ratioP2
10957;SDS011;5531;42.570;23.676;2022-12-29T00:01:24;13.32;;;10.40;;
10957;SDS011;5531;42.570;23.676;2022-12-29T00:03:53;12.32;;;10.00;;
10957;SDS011;5531;42.570;23.676;2022-12-29T00:06:22;13.77;;;9.40;;
10957;SDS011;5531;42.570;23.676;2022-12-29T00:08:54;11.95;;;9.85;;
10957;SDS011;5531;42.570;23.676;2022-12-29T00:11:24;12.77;;;10.18;;
10957;SDS011;5531;42.570;23.676;2022-12-29T00:13:54;12.13;;;9.70;;
10957;SDS011;5531;42.570;23.676;2022-12-29T00:16:36;12.82;;;10.00;;
10957;SDS011;5531;42.570;23.676;2022-12-29T00:19:05;11.45;;;8.98;;
10957;SDS011;5531;42.570;23.676;2022-12-29T00:21:55;11.65;;;9.18;;
10957;SDS011;5531;42.570;23.676;2022-12-29T00:24:39;11.55;;;9.63;;
10957;SDS011;5531;42.570;23.676;2022-12-29T00:27:20;13.70;;;10.68;;
10957;SDS011;5531;42.570;23.676;2022-12-29T00:30:01;15.15;;;10.68;;
10957;SDS011;5531;42.570;23.676;2022-12-29T00:32:43;12.55;;;10.52;;
10957;SDS011;5531;42.570;23.676;2022-12-29T00:35:25;15.95;;;11.27;;
10957;SDS011;5531;42.570;23.676;2022-12-29T00:37:57;16.23;;;12.00;;
10957;SDS011;5531;42.570;23.676;2022-12-29T00:40:44;13.73;;;11.80;;
10957;SDS011;5531;42.570;23.676;2022-12-29T00:43:26;17.38;;;12.55;;
10957;SDS011;5531;42.570;23.676;2022-12-29T00:46:07;17.02;;;12.05;;
10957;SDS011;5531;42.570;23.676;2022-12-29T00:48:36;17.33;;;12.85;;
10957;SDS011;5531;42.570;23.676;2022-12-29T00:51:17;16.00;;;11.85;;
10957;SDS011;5531;42.570;23.676;2022-12-29T00:53:46;16.70;;;13.52;;
10957;SDS011;5531;42.570;23.676;2022-12-29T00:56:18;16.70;;;12.80;;
10957;SDS011;5531;42.570;23.676;2022-12-29T00:58:47;17.83;;;13.48;;
10957;SDS011;5531;42.570;23.676;2022-12-29T01:01:16;19.77;;;13.77;;
10957;SDS011;5531;42.570;23.676;2022-12-29T01:03:45;19.10;;;13.93;;
10957;SDS011;5531;42.570;23.676;2022-12-29T01:06:14;18.52;;;13.80;;
10957;SDS011;5531;42.570;23.676;2022-12-29T01:08:43;17.00;;;12.55;;
10957;SDS011;5531;42.570;23.676;2022-12-29T01:11:34;15.85;;;12.40;;
10957;SDS011;5531;42.570;23.676;2022-12-29T01:14:01;16.60;;;12.27;;
10957;SDS011;5531;42.570;23.676;2022-12-29T01:16:30;15.55;;;11.70;;
10957;SDS011;5531;42.570;23.676;2022-12-29T01:18:59;18.10;;;12.20;;
10957;SDS011;5531;42.570;23.676;2022-12-29T01:21:28;17.10;;;11.00;;
10957;SDS011;5531;42.570;23.676;2022-12-29T01:23:58;15.38;;;11.20;;
10957;SDS011;5531;42.570;23.676;2022-12-29T01:26:27;15.70;;;11.45;;
10957;SDS011;5531;42.570;23.676;2022-12-29T01:28:59;14.55;;;10.77;;
10957;SDS011;5531;42.570;23.676;2022-12-29T01:31:28;14.90;;;11.88;;
10957;SDS011;5531;42.570;23.676;2022-12-29T01:33:57;15.82;;;12.05;;
10957;SDS011;5531;42.570;23.676;2022-12-29T01:36:26;16.90;;;13.10;;
10957;SDS011;5531;42.570;23.676;2022-12-29T01:38:55;21.75;;;14.85;;
10957;SDS011;5531;42.570;23.676;2022-12-29T01:41:24;18.67;;;13.55;;
10957;SDS011;5531;42.570;23.676;2022-12-29T01:43:55;18.55;;;14.35;;
10957;SDS011;5531;42.570;23.676;2022-12-29T01:46:29;18.73;;;14.38;;
10957;SDS011;5531;42.570;23.676;2022-12-29T01:49:04;22.13;;;15.95;;
10957;SDS011;5531;42.570;23.676;2022-12-29T01:51:40;25.70;;;19.70;;
10957;SDS011;5531;42.570;23.676;2022-12-29T01:54:15;27.27;;;20.40;;
10957;SDS011;5531;42.570;23.676;2022-12-29T01:56:47;26.08;;;20.13;;
10957;SDS011;5531;42.570;23.676;2022-12-29T01:59:19;29.63;;;20.83;;
10957;SDS011;5531;42.570;23.676;2022-12-29T02:01:55;28.30;;;20.80;;
10957;SDS011;5531;42.570;23.676;2022-12-29T02:04:24;25.77;;;18.90;;
10957;SDS011;5531;42.570;23.676;2022-12-29T02:06:55;23.80;;;17.70;;
10957;SDS011;5531;42.570;23.676;2022-12-29T02:09:29;23.60;;;15.77;;
10957;SDS011;5531;42.570;23.676;2022-12-29T02:11:59;23.85;;;17.52;;
10957;SDS011;5531;42.570;23.676;2022-12-29T02:14:29;25.75;;;17.42;;
10957;SDS011;5531;42.570;23.676;2022-12-29T02:17:04;24.25;;;17.13;;
10957;SDS011;5531;42.570;23.676;2022-12-29T02:22:50;24.35;;;18.38;;
10957;SDS011;5531;42.570;23.676;2022-12-29T02:25:43;24.63;;;17.52;;
10957;SDS011;5531;42.570;23.676;2022-12-29T02:28:42;29.33;;;18.83;;
10957;SDS011;5531;42.570;23.676;2022-12-29T02:31:25;25.30;;;18.08;;
10957;SDS011;5531;42.570;23.676;2022-12-29T02:34:03;29.40;;;17.77;;
10957;SDS011;5531;42.570;23.676;2022-12-29T02:36:43;26.15;;;18.75;;
10957;SDS011;5531;42.570;23.676;2022-12-29T02:39:18;26.85;;;19.60;;
10957;SDS011;5531;42.570;23.676;2022-12-29T02:41:56;27.08;;;19.25;;
10957;SDS011;5531;42.570;23.676;2022-12-29T02:44:34;30.20;;;20.60;;
10957;SDS011;5531;42.570;23.676;2022-12-29T02:47:11;27.92;;;20.98;;
10957;SDS011;5531;42.570;23.676;2022-12-29T02:49:45;29.40;;;21.42;;
10957;SDS011;5531;42.570;23.676;2022-12-29T02:52:22;28.55;;;22.45;;
10957;SDS011;5531;42.570;23.676;2022-12-29T02:54:55;28.63;;;21.73;;
10957;SDS011;5531;42.570;23.676;2022-12-29T02:57:31;26.60;;;20.70;;
10957;SDS011;5531;42.570;23.676;2022-12-29T03:00:03;26.20;;;19.67;;
10957;SDS011;5531;42.570;23.676;2022-12-29T03:02:55;27.63;;;19.70;;
10957;SDS011;5531;42.570;23.676;2022-12-29T03:08:33;30.50;;;20.60;;
10957;SDS011;5531;42.570;23.676;2022-12-29T03:11:08;27.73;;;19.75;;
10957;SDS011;5531;42.570;23.676;2022-12-29T03:14:02;29.17;;;19.60;;
10957;SDS011;5531;42.570;23.676;2022-12-29T03:16:49;27.23;;;20.00;;
10957;SDS011;5531;42.570;23.676;2022-12-29T03:19:30;28.60;;;19.60;;
10957;SDS011;5531;42.570;23.676;2022-12-29T03:22:04;29.23;;;19.75;;
10957;SDS011;5531;42.570;23.676;2022-12-29T03:24:48;28.48;;;18.50;;
10957;SDS011;5531;42.570;23.676;2022-12-29T03:27:21;27.42;;;20.17;;
10957;SDS011;5531;42.570;23.676;2022-12-29T03:29:54;26.63;;;19.67;;
10957;SDS011;5531;42.570;23.676;2022-12-29T03:32:27;28.30;;;20.65;;
10957;SDS011;5531;42.570;23.676;2022-12-29T03:35:02;26.00;;;20.15;;
10957;SDS011;5531;42.570;23.676;2022-12-29T03:37:34;32.08;;;21.88;;
10957;SDS011;5531;42.570;23.676;2022-12-29T03:40:06;30.67;;;22.10;;
10957;SDS011;5531;42.570;23.676;2022-12-29T03:42:36;35.15;;;25.73;;
10957;SDS011;5531;42.570;23.676;2022-12-29T03:45:07;36.45;;;27.55;;
10957;SDS011;5531;42.570;23.676;2022-12-29T03:47:37;40.03;;;28.30;;
10957;SDS011;5531;42.570;23.676;2022-12-29T03:50:11;36.63;;;27.55;;
10957;SDS011;5531;42.570;23.676;2022-12-29T03:52:40;34.50;;;24.73;;
10957;SDS011;5531;42.570;23.676;2022-12-29T03:55:09;37.70;;;26.02;;
10957;SDS011;5531;42.570;23.676;2022-12-29T03:57:38;34.08;;;24.83;;
10957;SDS011;5531;42.570;23.676;2022-12-29T04:00:08;31.15;;;22.80;;
10957;SDS011;5531;42.570;23.676;2022-12-29T04:02:38;31.40;;;22.80;;
10957;SDS011;5531;42.570;23.676;2022-12-29T04:05:10;33.47;;;22.88;;
10957;SDS011;5531;42.570;23.676;2022-12-29T04:07:39;31.45;;;21.92;;
10957;SDS011;5531;42.570;23.676;2022-12-29T04:10:08;30.85;;;22.27;;
10957;SDS011;5531;42.570;23.676;2022-12-29T04:12:37;31.70;;;22.00;;
10957;SDS011;5531;42.570;23.676;2022-12-29T04:15:07;38.95;;;27.55;;
10957;SDS011;5531;42.570;23.676;2022-12-29T04:17:37;35.72;;;27.25;;
10957;SDS011;5531;42.570;23.676;2022-12-29T04:20:06;36.45;;;27.50;;
10957;SDS011;5531;42.570;23.676;2022-12-29T04:22:57;39.00;;;26.50;;
10957;SDS011;5531;42.570;23.676;2022-12-29T04:25:27;35.83;;;25.77;;
10957;SDS011;5531;42.570;23.676;2022-12-29T04:27:56;33.38;;;25.17;;
10957;SDS011;5531;42.570;23.676;2022-12-29T04:30:25;34.70;;;25.15;;
10957;SDS011;5531;42.570;23.676;2022-12-29T04:32:54;32.63;;;23.35;;
10957;SDS011;5531;42.570;23.676;2022-12-29T04:35:26;34.67;;;23.20;;
10957;SDS011;5531;42.570;23.676;2022-12-29T04:37:55;35.45;;;23.27;;
10957;SDS011;5531;42.570;23.676;2022-12-29T04:40:24;32.28;;;22.42;;
10957;SDS011;5531;42.570;23.676;2022-12-29T04:42:53;33.00;;;21.45;;
10957;SDS011;5531;42.570;23.676;2022-12-29T04:45:22;38.78;;;25.50;;
10957;SDS011;5531;42.570;23.676;2022-12-29T04:47:51;34.75;;;22.65;;
10957;SDS011;5531;42.570;23.676;2022-12-29T04:50:20;36.78;;;23.83;;
10957;SDS011;5531;42.570;23.676;2022-12-29T04:52:52;35.83;;;22.75;;
10957;SDS011;5531;42.570;23.676;2022-12-29T04:55:21;32.85;;;22.80;;
10957;SDS011;5531;42.570;23.676;2022-12-29T04:57:50;36.97;;;24.02;;
10957;SDS011;5531;42.570;23.676;2022-12-29T05:00:19;34.88;;;23.10;;
10957;SDS011;5531;42.570;23.676;2022-12-29T05:02:48;35.50;;;24.20;;
10957;SDS011;5531;42.570;23.676;2022-12-29T05:05:17;34.38;;;21.38;;
10957;SDS011;5531;42.570;23.676;2022-12-29T05:07:47;37.22;;;24.02;;
10957;SDS011;5531;42.570;23.676;2022-12-29T05:10:18;37.88;;;24.33;;
10957;SDS011;5531;42.570;23.676;2022-12-29T05:12:48;36.08;;;22.58;;
10957;SDS011;5531;42.570;23.676;2022-12-29T05:15:17;36.72;;;24.15;;
10957;SDS011;5531;42.570;23.676;2022-12-29T05:20:45;36.17;;;23.50;;
10957;SDS011;5531;42.570;23.676;2022-12-29T05:23:15;36.45;;;23.15;;
10957;SDS011;5531;42.570;23.676;2022-12-29T05:25:47;40.00;;;22.58;;
10957;SDS011;5531;42.570;23.676;2022-12-29T05:28:16;35.55;;;23.67;;
10957;SDS011;5531;42.570;23.676;2022-12-29T05:30:47;39.90;;;24.65;;
10957;SDS011;5531;42.570;23.676;2022-12-29T05:33:17;37.80;;;24.02;;
10957;SDS011;5531;42.570;23.676;2022-12-29T05:35:46;39.72;;;24.00;;
10957;SDS011;5531;42.570;23.676;2022-12-29T05:38:15;41.85;;;25.33;;
10957;SDS011;5531;42.570;23.676;2022-12-29T05:40:47;38.28;;;24.35;;
10957;SDS011;5531;42.570;23.676;2022-12-29T05:43:16;37.60;;;24.17;;
10957;SDS011;5531;42.570;23.676;2022-12-29T05:45:48;39.33;;;24.63;;
10957;SDS011;5531;42.570;23.676;2022-12-29T05:48:17;38.28;;;24.23;;
10957;SDS011;5531;42.570;23.676;2022-12-29T05:50:46;41.70;;;25.38;;
10957;SDS011;5531;42.570;23.676;2022-12-29T05:53:16;37.45;;;23.35;;
10957;SDS011;5531;42.570;23.676;2022-12-29T05:55:48;40.58;;;25.63;;
10957;SDS011;5531;42.570;23.676;2022-12-29T05:58:18;43.90;;;25.33;;
10957;SDS011;5531;42.570;23.676;2022-12-29T06:00:47;41.72;;;25.27;;
10957;SDS011;5531;42.570;23.676;2022-12-29T06:03:16;41.55;;;25.58;;
10957;SDS011;5531;42.570;23.676;2022-12-29T06:05:45;37.97;;;23.70;;
10957;SDS011;5531;42.570;23.676;2022-12-29T06:08:15;42.65;;;24.50;;
10957;SDS011;5531;42.570;23.676;2022-12-29T06:10:44;49.92;;;26.08;;
10957;SDS011;5531;42.570;23.676;2022-12-29T06:13:16;54.60;;;26.15;;
10957;SDS011;5531;42.570;23.676;2022-12-29T06:15:47;45.58;;;25.38;;
10957;SDS011;5531;42.570;23.676;2022-12-29T06:18:17;52.67;;;27.67;;
10957;SDS011;5531;42.570;23.676;2022-12-29T06:20:46;47.53;;;26.30;;
10957;SDS011;5531;42.570;23.676;2022-12-29T06:23:15;56.90;;;27.20;;
10957;SDS011;5531;42.570;23.676;2022-12-29T06:25:45;56.83;;;25.85;;
10957;SDS011;5531;42.570;23.676;2022-12-29T06:28:19;57.92;;;28.13;;
10957;SDS011;5531;42.570;23.676;2022-12-29T06:30:49;59.90;;;28.25;;
10957;SDS011;5531;42.570;23.676;2022-12-29T06:33:18;57.95;;;26.42;;
10957;SDS011;5531;42.570;23.676;2022-12-29T06:35:47;48.38;;;26.85;;
10957;SDS011;5531;42.570;23.676;2022-12-29T06:38:16;56.15;;;26.83;;
10957;SDS011;5531;42.570;23.676;2022-12-29T06:40:45;46.25;;;25.25;;
10957;SDS011;5531;42.570;23.676;2022-12-29T06:43:14;62.55;;;27.70;;
10957;SDS011;5531;42.570;23.676;2022-12-29T06:45:46;58.25;;;26.77;;
10957;SDS011;5531;42.570;23.676;2022-12-29T06:48:15;73.72;;;29.48;;
10957;SDS011;5531;42.570;23.676;2022-12-29T06:50:44;50.53;;;25.55;;
10957;SDS011;5531;42.570;23.676;2022-12-29T06:53:13;57.92;;;26.98;;
10957;SDS011;5531;42.570;23.676;2022-12-29T06:55:42;64.15;;;38.03;;
10957;SDS011;5531;42.570;23.676;2022-12-29T06:58:11;61.95;;;26.85;;
10957;SDS011;5531;42.570;23.676;2022-12-29T07:00:40;58.60;;;25.27;;
10957;SDS011;5531;42.570;23.676;2022-12-29T07:03:12;61.63;;;26.92;;
10957;SDS011;5531;42.570;23.676;2022-12-29T07:05:41;62.72;;;25.50;;
10957;SDS011;5531;42.570;23.676;2022-12-29T07:08:10;64.68;;;27.88;;
10957;SDS011;5531;42.570;23.676;2022-12-29T07:10:39;64.00;;;27.17;;
10957;SDS011;5531;42.570;23.676;2022-12-29T07:13:08;55.35;;;26.02;;
10957;SDS011;5531;42.570;23.676;2022-12-29T07:15:37;60.45;;;25.05;;
10957;SDS011;5531;42.570;23.676;2022-12-29T07:18:06;45.85;;;25.10;;
10957;SDS011;5531;42.570;23.676;2022-12-29T07:20:38;44.90;;;25.20;;
10957;SDS011;5531;42.570;23.676;2022-12-29T07:23:07;43.70;;;23.85;;
10957;SDS011;5531;42.570;23.676;2022-12-29T07:25:36;35.08;;;21.45;;
10957;SDS011;5531;42.570;23.676;2022-12-29T07:28:06;39.25;;;22.77;;
10957;SDS011;5531;42.570;23.676;2022-12-29T07:30:36;69.10;;;26.05;;
10957;SDS011;5531;42.570;23.676;2022-12-29T07:33:05;44.00;;;26.00;;
10957;SDS011;5531;42.570;23.676;2022-12-29T07:35:35;45.55;;;25.52;;
10957;SDS011;5531;42.570;23.676;2022-12-29T07:38:06;48.60;;;24.52;;
10957;SDS011;5531;42.570;23.676;2022-12-29T07:40:36;112.22;;;30.98;;
10957;SDS011;5531;42.570;23.676;2022-12-29T07:43:05;68.80;;;26.85;;
10957;SDS011;5531;42.570;23.676;2022-12-29T07:45:34;83.18;;;25.90;;
10957;SDS011;5531;42.570;23.676;2022-12-29T07:48:03;54.35;;;26.00;;
10957;SDS011;5531;42.570;23.676;2022-12-29T07:50:34;68.60;;;27.42;;
10957;SDS011;5531;42.570;23.676;2022-12-29T07:53:06;73.72;;;25.25;;
10957;SDS011;5531;42.570;23.676;2022-12-29T07:55:35;49.90;;;23.83;;
10957;SDS011;5531;42.570;23.676;2022-12-29T07:58:04;51.47;;;33.85;;
10957;SDS011;5531;42.570;23.676;2022-12-29T08:00:33;45.50;;;23.80;;
10957;SDS011;5531;42.570;23.676;2022-12-29T08:03:03;42.10;;;22.95;;
10957;SDS011;5531;42.570;23.676;2022-12-29T08:05:32;53.33;;;24.13;;
10957;SDS011;5531;42.570;23.676;2022-12-29T08:08:02;70.35;;;24.95;;
10957;SDS011;5531;42.570;23.676;2022-12-29T08:10:34;80.72;;;24.38;;
10957;SDS011;5531;42.570;23.676;2022-12-29T08:13:03;72.82;;;23.83;;
10957;SDS011;5531;42.570;23.676;2022-12-29T08:15:32;79.72;;;24.38;;
10957;SDS011;5531;42.570;23.676;2022-12-29T08:18:02;90.47;;;26.15;;
10957;SDS011;5531;42.570;23.676;2022-12-29T08:20:31;50.00;;;23.48;;
10957;SDS011;5531;42.570;23.676;2022-12-29T08:23:00;39.40;;;22.75;;
10957;SDS011;5531;42.570;23.676;2022-12-29T08:25:29;37.78;;;22.25;;
10957;SDS011;5531;42.570;23.676;2022-12-29T08:28:01;39.45;;;26.20;;
10957;SDS011;5531;42.570;23.676;2022-12-29T08:30:30;37.88;;;22.55;;
10957;SDS011;5531;42.570;23.676;2022-12-29T08:32:59;33.78;;;21.38;;
10957;SDS011;5531;42.570;23.676;2022-12-29T08:35:28;54.22;;;41.80;;
10957;SDS011;5531;42.570;23.676;2022-12-29T08:37:57;32.17;;;22.33;;
10957;SDS011;5531;42.570;23.676;2022-12-29T08:40:26;35.92;;;24.90;;
10957;SDS011;5531;42.570;23.676;2022-12-29T08:42:55;30.40;;;22.45;;
10957;SDS011;5531;42.570;23.676;2022-12-29T08:45:26;27.55;;;20.42;;
10957;SDS011;5531;42.570;23.676;2022-12-29T08:47:55;27.00;;;19.42;;
10957;SDS011;5531;42.570;23.676;2022-12-29T08:50:25;73.40;;;63.63;;
10957;SDS011;5531;42.570;23.676;2022-12-29T08:52:54;24.40;;;17.98;;
10957;SDS011;5531;42.570;23.676;2022-12-29T08:55:23;22.52;;;17.65;;
10957;SDS011;5531;42.570;23.676;2022-12-29T08:57:52;23.30;;;18.33;;
10957;SDS011;5531;42.570;23.676;2022-12-29T09:00:21;23.00;;;18.92;;
10957;SDS011;5531;42.570;23.676;2022-12-29T09:02:53;25.38;;;20.40;;
10957;SDS011;5531;42.570;23.676;2022-12-29T09:05:22;23.92;;;18.52;;
10957;SDS011;5531;42.570;23.676;2022-12-29T09:07:51;19.73;;;15.00;;
10957;SDS011;5531;42.570;23.676;2022-12-29T09:10:20;42.80;;;38.35;;
10957;SDS011;5531;42.570;23.676;2022-12-29T09:12:49;20.52;;;17.25;;
10957;SDS011;5531;42.570;23.676;2022-12-29T09:15:18;18.45;;;15.27;;
10957;SDS011;5531;42.570;23.676;2022-12-29T09:17:47;18.85;;;14.52;;
10957;SDS011;5531;42.570;23.676;2022-12-29T09:20:19;18.25;;;14.55;;
10957;SDS011;5531;42.570;23.676;2022-12-29T09:22:48;16.15;;;13.48;;
10957;SDS011;5531;42.570;23.676;2022-12-29T09:25:17;17.73;;;15.83;;
10957;SDS011;5531;42.570;23.676;2022-12-29T09:27:48;17.15;;;15.20;;
10957;SDS011;5531;42.570;23.676;2022-12-29T09:30:18;12.90;;;11.50;;
10957;SDS011;5531;42.570;23.676;2022-12-29T09:32:48;12.55;;;11.25;;
10957;SDS011;5531;42.570;23.676;2022-12-29T09:35:20;15.20;;;12.00;;
10957;SDS011;5531;42.570;23.676;2022-12-29T09:37:49;15.48;;;12.45;;
10957;SDS011;5531;42.570;23.676;2022-12-29T09:40:28;14.43;;;12.05;;
10957;SDS011;5531;42.570;23.676;2022-12-29T09:45:59;12.85;;;10.77;;
10957;SDS011;5531;42.570;23.676;2022-12-29T09:48:37;12.85;;;10.10;;
10957;SDS011;5531;42.570;23.676;2022-12-29T09:51:12;13.63;;;10.77;;
10957;SDS011;5531;42.570;23.676;2022-12-29T09:53:44;11.52;;;10.43;;
10957;SDS011;5531;42.570;23.676;2022-12-29T09:56:19;12.93;;;11.52;;
10957;SDS011;5531;42.570;23.676;2022-12-29T09:58:50;11.82;;;10.50;;
10957;SDS011;5531;42.570;23.676;2022-12-29T10:01:25;13.10;;;10.65;;
10957;SDS011;5531;42.570;23.676;2022-12-29T10:03:58;12.82;;;11.00;;
10957;SDS011;5531;42.570;23.676;2022-12-29T10:06:36;12.77;;;11.38;;
10957;SDS011;5531;42.570;23.676;2022-12-29T10:09:12;12.82;;;10.45;;
10957;SDS011;5531;42.570;23.676;2022-12-29T10:11:57;15.05;;;12.60;;
10957;SDS011;5531;42.570;23.676;2022-12-29T10:14:47;16.23;;;13.07;;
10957;SDS011;5531;42.570;23.676;2022-12-29T10:17:28;16.42;;;13.90;;
10957;SDS011;5531;42.570;23.676;2022-12-29T10:20:10;16.85;;;13.55;;
10957;SDS011;5531;42.570;23.676;2022-12-29T10:22:55;16.13;;;13.82;;
10957;SDS011;5531;42.570;23.676;2022-12-29T10:25:36;16.90;;;13.93;;
10957;SDS011;5531;42.570;23.676;2022-12-29T10:28:10;15.27;;;13.18;;
10957;SDS011;5531;42.570;23.676;2022-12-29T10:30:47;16.30;;;14.32;;
10957;SDS011;5531;42.570;23.676;2022-12-29T10:33:18;16.88;;;14.10;;
10957;SDS011;5531;42.570;23.676;2022-12-29T10:35:51;16.85;;;14.35;;
10957;SDS011;5531;42.570;23.676;2022-12-29T10:38:25;17.35;;;14.07;;
10957;SDS011;5531;42.570;23.676;2022-12-29T10:41:00;17.30;;;14.00;;
10957;SDS011;5531;42.570;23.676;2022-12-29T10:43:39;15.57;;;13.82;;
10957;SDS011;5531;42.570;23.676;2022-12-29T10:46:13;18.35;;;15.13;;
10957;SDS011;5531;42.570;23.676;2022-12-29T10:48:46;16.30;;;13.80;;
10957;SDS011;5531;42.570;23.676;2022-12-29T10:51:18;14.57;;;12.80;;
10957;SDS011;5531;42.570;23.676;2022-12-29T10:53:54;17.33;;;14.60;;
10957;SDS011;5531;42.570;23.676;2022-12-29T10:56:29;17.13;;;13.88;;
10957;SDS011;5531;42.570;23.676;2022-12-29T10:59:04;14.27;;;12.63;;
10957;SDS011;5531;42.570;23.676;2022-12-29T11:01:46;15.50;;;12.98;;
10957;SDS011;5531;42.570;23.676;2022-12-29T11:04:32;15.02;;;12.50;;
10957;SDS011;5531;42.570;23.676;2022-12-29T11:07:11;15.98;;;12.35;;
10957;SDS011;5531;42.570;23.676;2022-12-29T11:09:46;13.35;;;11.88;;
10957;SDS011;5531;42.570;23.676;2022-12-29T11:12:20;14.32;;;11.82;;
10957;SDS011;5531;42.570;23.676;2022-12-29T11:15:01;13.88;;;11.88;;
10957;SDS011;5531;42.570;23.676;2022-12-29T11:17:44;13.82;;;11.52;;
10957;SDS011;5531;42.570;23.676;2022-12-29T11:20:31;14.80;;;11.55;;
10957;SDS011;5531;42.570;23.676;2022-12-29T11:23:04;12.80;;;11.20;;
10957;SDS011;5531;42.570;23.676;2022-12-29T11:28:41;12.70;;;11.20;;
10957;SDS011;5531;42.570;23.676;2022-12-29T11:31:15;12.20;;;10.75;;
10957;SDS011;5531;42.570;23.676;2022-12-29T11:33:45;13.25;;;10.50;;
10957;SDS011;5531;42.570;23.676;2022-12-29T11:36:15;12.00;;;9.90;;
10957;SDS011;5531;42.570;23.676;2022-12-29T11:38:49;11.68;;;10.13;;
10957;SDS011;5531;42.570;23.676;2022-12-29T11:41:22;15.00;;;11.80;;
10957;SDS011;5531;42.570;23.676;2022-12-29T11:43:54;12.25;;;10.95;;
10957;SDS011;5531;42.570;23.676;2022-12-29T11:46:26;13.10;;;10.95;;
10957;SDS011;5531;42.570;23.676;2022-12-29T11:48:58;12.85;;;11.13;;
10957;SDS011;5531;42.570;23.676;2022-12-29T11:51:29;13.32;;;11.63;;
10957;SDS011;5531;42.570;23.676;2022-12-29T11:54:02;12.20;;;10.63;;
10957;SDS011;5531;42.570;23.676;2022-12-29T11:56:37;12.55;;;11.02;;
10957;SDS011;5531;42.570;23.676;2022-12-29T12:02:30;13.63;;;11.77;;
10957;SDS011;5531;42.570;23.676;2022-12-29T12:05:08;14.30;;;11.68;;
10957;SDS011;5531;42.570;23.676;2022-12-29T12:07:42;12.32;;;10.98;;
10957;SDS011;5531;42.570;23.676;2022-12-29T12:10:16;11.23;;;10.02;;
10957;SDS011;5531;42.570;23.676;2022-12-29T12:12:56;11.80;;;10.38;;
10957;SDS011;5531;42.570;23.676;2022-12-29T12:15:34;12.55;;;11.10;;
10957;SDS011;5531;42.570;23.676;2022-12-29T12:18:09;12.90;;;10.75;;
10957;SDS011;5531;42.570;23.676;2022-12-29T12:20:45;13.15;;;10.63;;
10957;SDS011;5531;42.570;23.676;2022-12-29T12:23:24;11.40;;;10.20;;
10957;SDS011;5531;42.570;23.676;2022-12-29T12:26:02;12.13;;;10.73;;
10957;SDS011;5531;42.570;23.676;2022-12-29T12:28:44;11.85;;;10.25;;
10957;SDS011;5531;42.570;23.676;2022-12-29T12:31:24;14.20;;;11.02;;
10957;SDS011;5531;42.570;23.676;2022-12-29T12:34:04;12.10;;;10.80;;
10957;SDS011;5531;42.570;23.676;2022-12-29T12:39:42;11.80;;;10.60;;
10957;SDS011;5531;42.570;23.676;2022-12-29T12:42:27;11.65;;;10.48;;
10957;SDS011;5531;42.570;23.676;2022-12-29T12:48:06;12.20;;;10.90;;
10957;SDS011;5531;42.570;23.676;2022-12-29T12:50:48;15.65;;;10.40;;
10957;SDS011;5531;42.570;23.676;2022-12-29T12:53:26;11.57;;;10.38;;
10957;SDS011;5531;42.570;23.676;2022-12-29T12:56:18;12.55;;;10.50;;
10957;SDS011;5531;42.570;23.676;2022-12-29T12:59:06;12.55;;;10.73;;
10957;SDS011;5531;42.570;23.676;2022-12-29T13:01:50;11.60;;;10.10;;
10957;SDS011;5531;42.570;23.676;2022-12-29T13:04:34;12.43;;;10.32;;
10957;SDS011;5531;42.570;23.676;2022-12-29T13:07:24;13.00;;;10.77;;
10957;SDS011;5531;42.570;23.676;2022-12-29T13:13:09;11.82;;;10.13;;
10957;SDS011;5531;42.570;23.676;2022-12-29T13:15:57;19.02;;;16.98;;
10957;SDS011;5531;42.570;23.676;2022-12-29T13:18:37;11.23;;;10.00;;
10957;SDS011;5531;42.570;23.676;2022-12-29T13:21:24;12.95;;;10.63;;
10957;SDS011;5531;42.570;23.676;2022-12-29T13:24:02;12.48;;;10.18;;
10957;SDS011;5531;42.570;23.676;2022-12-29T13:26:44;15.70;;;13.13;;
10957;SDS011;5531;42.570;23.676;2022-12-29T13:29:20;16.30;;;12.95;;
10957;SDS011;5531;42.570;23.676;2022-12-29T13:32:00;13.50;;;11.68;;
10957;SDS011;5531;42.570;23.676;2022-12-29T13:34:46;14.55;;;12.98;;
10957;SDS011;5531;42.570;23.676;2022-12-29T13:37:25;12.85;;;11.55;;
10957;SDS011;5531;42.570;23.676;2022-12-29T13:39:59;13.75;;;11.80;;
10957;SDS011;5531;42.570;23.676;2022-12-29T13:42:32;14.30;;;12.23;;
10957;SDS011;5531;42.570;23.676;2022-12-29T13:45:03;13.55;;;12.15;;
10957;SDS011;5531;42.570;23.676;2022-12-29T13:47:38;14.45;;;12.65;;
10957;SDS011;5531;42.570;23.676;2022-12-29T13:50:15;18.00;;;12.85;;
10957;SDS011;5531;42.570;23.676;2022-12-29T13:52:49;14.20;;;12.63;;
10957;SDS011;5531;42.570;23.676;2022-12-29T13:55:26;15.02;;;12.77;;
10957;SDS011;5531;42.570;23.676;2022-12-29T13:58:00;12.82;;;11.52;;
10957;SDS011;5531;42.570;23.676;2022-12-29T14:00:38;13.20;;;11.80;;
10957;SDS011;5531;42.570;23.676;2022-12-29T14:03:19;12.95;;;11.60;;
10957;SDS011;5531;42.570;23.676;2022-12-29T14:06:11;13.65;;;11.90;;
10957;SDS011;5531;42.570;23.676;2022-12-29T14:08:44;15.30;;;12.02;;
10957;SDS011;5531;42.570;23.676;2022-12-29T14:11:14;14.35;;;12.85;;
10957;SDS011;5531;42.570;23.676;2022-12-29T14:13:45;14.18;;;12.43;;
10957;SDS011;5531;42.570;23.676;2022-12-29T14:16:26;15.45;;;12.88;;
10957;SDS011;5531;42.570;23.676;2022-12-29T14:19:04;16.77;;;13.50;;
10957;SDS011;5531;42.570;23.676;2022-12-29T14:21:41;17.73;;;15.75;;
10957;SDS011;5531;42.570;23.676;2022-12-29T14:24:32;18.52;;;14.45;;
10957;SDS011;5531;42.570;23.676;2022-12-29T14:33:15;15.63;;;13.43;;
10957;SDS011;5531;42.570;23.676;2022-12-29T14:35:46;15.30;;;13.70;;
10957;SDS011;5531;42.570;23.676;2022-12-29T14:38:24;14.85;;;12.80;;
10957;SDS011;5531;42.570;23.676;2022-12-29T14:43:57;14.15;;;12.02;;
10957;SDS011;5531;42.570;23.676;2022-12-29T14:46:44;17.17;;;13.65;;
10957;SDS011;5531;42.570;23.676;2022-12-29T14:49:17;16.33;;;14.55;;
10957;SDS011;5531;42.570;23.676;2022-12-29T14:51:49;16.08;;;14.40;;
10957;SDS011;5531;42.570;23.676;2022-12-29T14:57:33;14.07;;;12.43;;
10957;SDS011;5531;42.570;23.676;2022-12-29T15:00:14;18.35;;;12.43;;
10957;SDS011;5531;42.570;23.676;2022-12-29T15:02:49;20.55;;;18.02;;
10957;SDS011;5531;42.570;23.676;2022-12-29T15:05:35;15.95;;;13.18;;
10957;SDS011;5531;42.570;23.676;2022-12-29T15:08:09;17.42;;;14.18;;
10957;SDS011;5531;42.570;23.676;2022-12-29T15:10:43;16.23;;;13.85;;
10957;SDS011;5531;42.570;23.676;2022-12-29T15:13:22;16.90;;;14.13;;
10957;SDS011;5531;42.570;23.676;2022-12-29T15:15:53;15.95;;;14.25;;
10957;SDS011;5531;42.570;23.676;2022-12-29T15:18:23;15.88;;;14.18;;
10957;SDS011;5531;42.570;23.676;2022-12-29T15:20:55;17.73;;;15.80;;
10957;SDS011;5531;42.570;23.676;2022-12-29T15:23:27;20.13;;;15.07;;
10957;SDS011;5531;42.570;23.676;2022-12-29T15:26:04;16.90;;;14.55;;
10957;SDS011;5531;42.570;23.676;2022-12-29T15:28:38;20.38;;;14.18;;
10957;SDS011;5531;42.570;23.676;2022-12-29T15:31:10;16.08;;;13.63;;
10957;SDS011;5531;42.570;23.676;2022-12-29T15:33:42;18.38;;;15.32;;
10957;SDS011;5531;42.570;23.676;2022-12-29T15:36:13;19.60;;;17.00;;
10957;SDS011;5531;42.570;23.676;2022-12-29T15:38:46;19.50;;;15.77;;